sensor_id;sensor_type;location;lat;lon;timestamp;P1;durP1;ratioP1;P2;durP2;ratioP2
35891;SDS011;21993;42.672;23.296;2023-12-29T00:01:48;41.93;;;22.17;;
35891;SDS011;21993;42.672;23.296;2023-12-29T00:04:13;38.47;;;21.03;;
35891;SDS011;21993;42.672;23.296;2023-12-29T00:06:39;36.83;;;22.77;;
35891;SDS011;21993;42.672;23.296;2023-12-29T00:09:05;42.30;;;23.20;;
35891;SDS011;21993;42.672;23.296;2023-12-29T00:11:30;47.37;;;25.60;;
35891;SDS011;21993;42.672;23.296;2023-12-29T00:13:56;38.30;;;22.53;;
35891;SDS011;21993;42.672;23.296;2023-12-29T00:16:22;47.50;;;24.93;;
35891;SDS011;21993;42.672;23.296;2023-12-29T00:18:47;47.27;;;25.77;;
35891;SDS011;21993;42.672;23.296;2023-12-29T00:21:13;45.57;;;23.33;;
35891;SDS011;21993;42.672;23.296;2023-12-29T00:23:38;50.47;;;26.93;;
35891;SDS011;21993;42.672;23.296;2023-12-29T00:26:04;46.70;;;24.27;;
35891;SDS011;21993;42.672;23.296;2023-12-29T00:28:29;41.60;;;23.67;;
35891;SDS011;21993;42.672;23.296;2023-12-29T00:30:55;40.23;;;22.97;;
35891;SDS011;21993;42.672;23.296;2023-12-29T00:33:20;35.37;;;20.73;;
35891;SDS011;21993;42.672;23.296;2023-12-29T00:35:46;38.97;;;21.43;;
35891;SDS011;21993;42.672;23.296;2023-12-29T00:38:11;39.13;;;20.20;;
35891;SDS011;21993;42.672;23.296;2023-12-29T00:40:37;37.60;;;20.00;;
35891;SDS011;21993;42.672;23.296;2023-12-29T00:43:02;36.37;;;20.57;;
35891;SDS011;21993;42.672;23.296;2023-12-29T00:45:28;37.60;;;20.97;;
35891;SDS011;21993;42.672;23.296;2023-12-29T00:47:57;45.53;;;22.90;;
35891;SDS011;21993;42.672;23.296;2023-12-29T00:50:23;40.50;;;21.73;;
35891;SDS011;21993;42.672;23.296;2023-12-29T00:52:49;37.17;;;22.20;;
35891;SDS011;21993;42.672;23.296;2023-12-29T00:55:14;37.60;;;22.57;;
35891;SDS011;21993;42.672;23.296;2023-12-29T00:57:40;39.30;;;23.80;;
35891;SDS011;21993;42.672;23.296;2023-12-29T01:00:07;47.77;;;25.13;;
35891;SDS011;21993;42.672;23.296;2023-12-29T01:02:35;45.20;;;24.03;;
35891;SDS011;21993;42.672;23.296;2023-12-29T01:05:01;36.47;;;22.40;;
35891;SDS011;21993;42.672;23.296;2023-12-29T01:07:27;39.67;;;22.37;;
35891;SDS011;21993;42.672;23.296;2023-12-29T01:09:52;36.93;;;22.20;;
35891;SDS011;21993;42.672;23.296;2023-12-29T01:12:17;47.43;;;22.80;;
35891;SDS011;21993;42.672;23.296;2023-12-29T01:14:43;42.23;;;21.33;;
35891;SDS011;21993;42.672;23.296;2023-12-29T01:17:08;43.20;;;24.03;;
35891;SDS011;21993;42.672;23.296;2023-12-29T01:19:34;43.57;;;24.77;;
35891;SDS011;21993;42.672;23.296;2023-12-29T01:21:59;47.93;;;25.47;;
35891;SDS011;21993;42.672;23.296;2023-12-29T01:24:25;49.20;;;25.33;;
35891;SDS011;21993;42.672;23.296;2023-12-29T01:26:51;45.77;;;26.73;;
35891;SDS011;21993;42.672;23.296;2023-12-29T01:29:17;47.07;;;26.73;;
35891;SDS011;21993;42.672;23.296;2023-12-29T01:31:43;46.90;;;26.37;;
35891;SDS011;21993;42.672;23.296;2023-12-29T01:34:08;44.73;;;25.60;;
35891;SDS011;21993;42.672;23.296;2023-12-29T01:36:34;51.97;;;28.13;;
35891;SDS011;21993;42.672;23.296;2023-12-29T01:38:59;51.80;;;28.60;;
35891;SDS011;21993;42.672;23.296;2023-12-29T01:41:27;57.10;;;31.40;;
35891;SDS011;21993;42.672;23.296;2023-12-29T01:46:31;46.90;;;28.67;;
35891;SDS011;21993;42.672;23.296;2023-12-29T01:48:58;47.47;;;27.73;;
35891;SDS011;21993;42.672;23.296;2023-12-29T01:51:25;47.03;;;26.87;;
35891;SDS011;21993;42.672;23.296;2023-12-29T01:53:55;46.77;;;26.67;;
35891;SDS011;21993;42.672;23.296;2023-12-29T01:56:21;49.10;;;28.20;;
35891;SDS011;21993;42.672;23.296;2023-12-29T01:58:48;47.33;;;28.83;;
35891;SDS011;21993;42.672;23.296;2023-12-29T02:01:14;48.37;;;28.10;;
35891;SDS011;21993;42.672;23.296;2023-12-29T02:03:42;44.20;;;26.10;;
35891;SDS011;21993;42.672;23.296;2023-12-29T02:06:08;49.30;;;27.63;;
35891;SDS011;21993;42.672;23.296;2023-12-29T02:08:35;45.37;;;25.60;;
35891;SDS011;21993;42.672;23.296;2023-12-29T02:11:02;45.87;;;26.27;;
35891;SDS011;21993;42.672;23.296;2023-12-29T02:13:28;50.30;;;27.33;;
35891;SDS011;21993;42.672;23.296;2023-12-29T02:15:54;48.33;;;24.33;;
35891;SDS011;21993;42.672;23.296;2023-12-29T02:18:24;50.57;;;24.23;;
35891;SDS011;21993;42.672;23.296;2023-12-29T02:20:51;37.57;;;22.93;;
35891;SDS011;21993;42.672;23.296;2023-12-29T02:23:16;38.97;;;22.13;;
35891;SDS011;21993;42.672;23.296;2023-12-29T02:25:42;35.30;;;19.87;;
35891;SDS011;21993;42.672;23.296;2023-12-29T02:28:14;34.90;;;19.77;;
35891;SDS011;21993;42.672;23.296;2023-12-29T02:30:59;28.13;;;18.47;;
35891;SDS011;21993;42.672;23.296;2023-12-29T02:33:26;31.73;;;19.40;;
35891;SDS011;21993;42.672;23.296;2023-12-29T02:35:55;28.70;;;18.80;;
35891;SDS011;21993;42.672;23.296;2023-12-29T02:38:24;36.17;;;21.30;;
35891;SDS011;21993;42.672;23.296;2023-12-29T02:40:54;31.00;;;19.17;;
35891;SDS011;21993;42.672;23.296;2023-12-29T02:43:20;33.77;;;18.40;;
35891;SDS011;21993;42.672;23.296;2023-12-29T02:45:46;35.27;;;19.53;;
35891;SDS011;21993;42.672;23.296;2023-12-29T02:48:11;34.47;;;19.27;;
35891;SDS011;21993;42.672;23.296;2023-12-29T02:50:37;40.07;;;22.13;;
35891;SDS011;21993;42.672;23.296;2023-12-29T02:53:02;34.67;;;21.20;;
35891;SDS011;21993;42.672;23.296;2023-12-29T02:55:29;40.13;;;22.57;;
35891;SDS011;21993;42.672;23.296;2023-12-29T02:57:54;39.73;;;24.63;;
35891;SDS011;21993;42.672;23.296;2023-12-29T03:00:20;54.97;;;32.00;;
35891;SDS011;21993;42.672;23.296;2023-12-29T03:02:45;65.03;;;37.47;;
35891;SDS011;21993;42.672;23.296;2023-12-29T03:05:11;77.87;;;41.53;;
35891;SDS011;21993;42.672;23.296;2023-12-29T03:07:36;84.80;;;46.57;;
35891;SDS011;21993;42.672;23.296;2023-12-29T03:10:02;97.70;;;48.13;;
35891;SDS011;21993;42.672;23.296;2023-12-29T03:12:28;87.60;;;45.23;;
35891;SDS011;21993;42.672;23.296;2023-12-29T03:14:55;83.80;;;45.57;;
35891;SDS011;21993;42.672;23.296;2023-12-29T03:17:21;73.13;;;45.03;;
35891;SDS011;21993;42.672;23.296;2023-12-29T03:19:47;80.80;;;45.77;;
35891;SDS011;21993;42.672;23.296;2023-12-29T03:22:12;79.37;;;42.77;;
35891;SDS011;21993;42.672;23.296;2023-12-29T03:24:40;103.13;;;44.93;;
35891;SDS011;21993;42.672;23.296;2023-12-29T03:27:06;82.07;;;45.73;;
35891;SDS011;21993;42.672;23.296;2023-12-29T03:29:32;78.43;;;44.13;;
35891;SDS011;21993;42.672;23.296;2023-12-29T03:31:57;79.93;;;45.10;;
35891;SDS011;21993;42.672;23.296;2023-12-29T03:34:23;82.47;;;44.00;;
35891;SDS011;21993;42.672;23.296;2023-12-29T03:36:48;78.70;;;43.90;;
35891;SDS011;21993;42.672;23.296;2023-12-29T03:39:14;74.10;;;42.03;;
35891;SDS011;21993;42.672;23.296;2023-12-29T03:41:39;79.60;;;41.87;;
35891;SDS011;21993;42.672;23.296;2023-12-29T03:44:04;71.03;;;42.33;;
35891;SDS011;21993;42.672;23.296;2023-12-29T03:46:31;75.67;;;40.90;;
35891;SDS011;21993;42.672;23.296;2023-12-29T03:48:57;64.60;;;38.07;;
35891;SDS011;21993;42.672;23.296;2023-12-29T03:51:23;74.27;;;42.07;;
35891;SDS011;21993;42.672;23.296;2023-12-29T03:53:49;83.57;;;43.67;;
35891;SDS011;21993;42.672;23.296;2023-12-29T03:56:16;75.03;;;40.03;;
35891;SDS011;21993;42.672;23.296;2023-12-29T03:58:43;76.30;;;40.67;;
35891;SDS011;21993;42.672;23.296;2023-12-29T04:01:12;70.70;;;39.13;;
35891;SDS011;21993;42.672;23.296;2023-12-29T04:03:38;67.33;;;39.57;;
35891;SDS011;21993;42.672;23.296;2023-12-29T04:06:04;69.63;;;40.63;;
35891;SDS011;21993;42.672;23.296;2023-12-29T04:08:30;69.47;;;37.33;;
35891;SDS011;21993;42.672;23.296;2023-12-29T04:10:56;68.93;;;37.73;;
35891;SDS011;21993;42.672;23.296;2023-12-29T04:13:22;71.43;;;39.53;;
35891;SDS011;21993;42.672;23.296;2023-12-29T04:15:47;62.30;;;37.47;;
35891;SDS011;21993;42.672;23.296;2023-12-29T04:18:13;76.90;;;38.60;;
35891;SDS011;21993;42.672;23.296;2023-12-29T04:20:39;60.67;;;34.87;;
35891;SDS011;21993;42.672;23.296;2023-12-29T04:23:05;58.20;;;34.27;;
35891;SDS011;21993;42.672;23.296;2023-12-29T04:25:32;59.30;;;32.40;;
35891;SDS011;21993;42.672;23.296;2023-12-29T04:27:57;56.57;;;35.60;;
35891;SDS011;21993;42.672;23.296;2023-12-29T04:30:23;57.60;;;33.30;;
35891;SDS011;21993;42.672;23.296;2023-12-29T04:32:48;52.37;;;30.77;;
35891;SDS011;21993;42.672;23.296;2023-12-29T04:35:14;61.33;;;31.77;;
35891;SDS011;21993;42.672;23.296;2023-12-29T04:37:40;52.83;;;30.40;;
35891;SDS011;21993;42.672;23.296;2023-12-29T04:40:06;54.67;;;28.80;;
35891;SDS011;21993;42.672;23.296;2023-12-29T04:42:32;47.27;;;28.33;;
35891;SDS011;21993;42.672;23.296;2023-12-29T04:44:58;48.50;;;27.50;;
35891;SDS011;21993;42.672;23.296;2023-12-29T04:47:23;48.87;;;29.63;;
35891;SDS011;21993;42.672;23.296;2023-12-29T04:49:49;58.70;;;33.27;;
35891;SDS011;21993;42.672;23.296;2023-12-29T04:52:14;55.73;;;33.67;;
35891;SDS011;21993;42.672;23.296;2023-12-29T04:54:40;58.73;;;33.37;;
35891;SDS011;21993;42.672;23.296;2023-12-29T04:57:05;61.60;;;36.60;;
35891;SDS011;21993;42.672;23.296;2023-12-29T04:59:30;71.40;;;40.83;;
35891;SDS011;21993;42.672;23.296;2023-12-29T05:01:56;63.13;;;37.17;;
35891;SDS011;21993;42.672;23.296;2023-12-29T05:04:21;57.93;;;34.73;;
35891;SDS011;21993;42.672;23.296;2023-12-29T05:06:47;60.70;;;36.83;;
35891;SDS011;21993;42.672;23.296;2023-12-29T05:09:12;62.87;;;34.80;;
35891;SDS011;21993;42.672;23.296;2023-12-29T05:11:38;53.63;;;31.47;;
35891;SDS011;21993;42.672;23.296;2023-12-29T05:14:05;66.10;;;36.13;;
35891;SDS011;21993;42.672;23.296;2023-12-29T05:16:30;57.43;;;34.07;;
35891;SDS011;21993;42.672;23.296;2023-12-29T05:18:56;57.73;;;32.43;;
35891;SDS011;21993;42.672;23.296;2023-12-29T05:21:21;61.23;;;34.60;;
35891;SDS011;21993;42.672;23.296;2023-12-29T05:23:49;55.80;;;33.53;;
35891;SDS011;21993;42.672;23.296;2023-12-29T05:26:15;71.90;;;36.87;;
35891;SDS011;21993;42.672;23.296;2023-12-29T05:28:40;75.70;;;39.97;;
35891;SDS011;21993;42.672;23.296;2023-12-29T05:31:06;66.80;;;40.40;;
35891;SDS011;21993;42.672;23.296;2023-12-29T05:33:32;76.53;;;43.97;;
35891;SDS011;21993;42.672;23.296;2023-12-29T05:35:58;79.07;;;42.73;;
35891;SDS011;21993;42.672;23.296;2023-12-29T05:38:30;70.77;;;42.30;;
35891;SDS011;21993;42.672;23.296;2023-12-29T05:40:56;78.07;;;43.60;;
35891;SDS011;21993;42.672;23.296;2023-12-29T05:43:21;82.33;;;46.13;;
35891;SDS011;21993;42.672;23.296;2023-12-29T05:45:47;83.47;;;48.00;;
35891;SDS011;21993;42.672;23.296;2023-12-29T05:48:12;81.20;;;46.83;;
35891;SDS011;21993;42.672;23.296;2023-12-29T05:50:38;80.40;;;46.50;;
35891;SDS011;21993;42.672;23.296;2023-12-29T05:53:03;78.70;;;45.10;;
35891;SDS011;21993;42.672;23.296;2023-12-29T05:55:30;76.90;;;44.37;;
35891;SDS011;21993;42.672;23.296;2023-12-29T05:57:56;79.33;;;41.03;;
35891;SDS011;21993;42.672;23.296;2023-12-29T06:00:21;89.50;;;44.80;;
35891;SDS011;21993;42.672;23.296;2023-12-29T06:02:47;75.07;;;43.10;;
35891;SDS011;21993;42.672;23.296;2023-12-29T06:05:12;79.03;;;43.47;;
35891;SDS011;21993;42.672;23.296;2023-12-29T06:07:38;79.70;;;44.30;;
35891;SDS011;21993;42.672;23.296;2023-12-29T06:10:04;88.30;;;46.23;;
35891;SDS011;21993;42.672;23.296;2023-12-29T06:12:30;85.57;;;45.50;;
35891;SDS011;21993;42.672;23.296;2023-12-29T06:14:55;82.77;;;44.27;;
35891;SDS011;21993;42.672;23.296;2023-12-29T06:17:21;92.33;;;44.77;;
35891;SDS011;21993;42.672;23.296;2023-12-29T06:19:46;84.17;;;46.13;;
35891;SDS011;21993;42.672;23.296;2023-12-29T06:22:12;77.70;;;44.73;;
35891;SDS011;21993;42.672;23.296;2023-12-29T06:24:39;81.37;;;43.87;;
35891;SDS011;21993;42.672;23.296;2023-12-29T06:27:07;81.37;;;46.37;;
35891;SDS011;21993;42.672;23.296;2023-12-29T06:29:33;84.07;;;44.40;;
35891;SDS011;21993;42.672;23.296;2023-12-29T06:31:58;87.30;;;45.67;;
35891;SDS011;21993;42.672;23.296;2023-12-29T06:34:24;85.10;;;44.93;;
35891;SDS011;21993;42.672;23.296;2023-12-29T06:36:50;83.47;;;45.00;;
35891;SDS011;21993;42.672;23.296;2023-12-29T06:39:16;91.20;;;47.30;;
35891;SDS011;21993;42.672;23.296;2023-12-29T06:41:41;88.13;;;46.10;;
35891;SDS011;21993;42.672;23.296;2023-12-29T06:44:07;85.87;;;46.23;;
35891;SDS011;21993;42.672;23.296;2023-12-29T06:46:33;82.70;;;44.57;;
35891;SDS011;21993;42.672;23.296;2023-12-29T06:48:58;85.60;;;45.67;;
35891;SDS011;21993;42.672;23.296;2023-12-29T06:51:24;81.27;;;44.83;;
35891;SDS011;21993;42.672;23.296;2023-12-29T06:53:49;81.47;;;44.27;;
35891;SDS011;21993;42.672;23.296;2023-12-29T06:56:15;81.37;;;43.93;;
35891;SDS011;21993;42.672;23.296;2023-12-29T06:58:43;79.47;;;43.40;;
35891;SDS011;21993;42.672;23.296;2023-12-29T07:01:08;83.00;;;46.67;;
35891;SDS011;21993;42.672;23.296;2023-12-29T07:03:34;80.47;;;44.77;;
35891;SDS011;21993;42.672;23.296;2023-12-29T07:06:03;88.57;;;44.63;;
35891;SDS011;21993;42.672;23.296;2023-12-29T07:08:28;89.47;;;48.37;;
35891;SDS011;21993;42.672;23.296;2023-12-29T07:10:54;81.77;;;46.77;;
35891;SDS011;21993;42.672;23.296;2023-12-29T07:13:20;79.10;;;45.27;;
35891;SDS011;21993;42.672;23.296;2023-12-29T07:15:46;92.70;;;46.03;;
35891;SDS011;21993;42.672;23.296;2023-12-29T07:18:13;77.77;;;40.37;;
35891;SDS011;21993;42.672;23.296;2023-12-29T07:20:38;79.50;;;44.90;;
35891;SDS011;21993;42.672;23.296;2023-12-29T07:23:04;83.87;;;45.90;;
35891;SDS011;21993;42.672;23.296;2023-12-29T07:25:30;77.27;;;42.87;;
35891;SDS011;21993;42.672;23.296;2023-12-29T07:27:55;95.93;;;45.80;;
35891;SDS011;21993;42.672;23.296;2023-12-29T07:30:21;81.23;;;46.70;;
35891;SDS011;21993;42.672;23.296;2023-12-29T07:32:47;79.70;;;44.60;;
35891;SDS011;21993;42.672;23.296;2023-12-29T07:35:12;86.43;;;47.40;;
35891;SDS011;21993;42.672;23.296;2023-12-29T07:37:41;88.03;;;45.70;;
35891;SDS011;21993;42.672;23.296;2023-12-29T07:40:07;87.60;;;47.40;;
35891;SDS011;21993;42.672;23.296;2023-12-29T07:42:35;79.90;;;45.63;;
35891;SDS011;21993;42.672;23.296;2023-12-29T07:45:00;79.77;;;43.07;;
35891;SDS011;21993;42.672;23.296;2023-12-29T07:47:26;76.93;;;44.03;;
35891;SDS011;21993;42.672;23.296;2023-12-29T07:49:51;89.67;;;46.17;;
35891;SDS011;21993;42.672;23.296;2023-12-29T07:52:17;79.10;;;43.90;;
35891;SDS011;21993;42.672;23.296;2023-12-29T07:54:42;71.13;;;45.47;;
35891;SDS011;21993;42.672;23.296;2023-12-29T07:57:08;76.90;;;44.27;;
35891;SDS011;21993;42.672;23.296;2023-12-29T07:59:33;81.93;;;45.27;;
35891;SDS011;21993;42.672;23.296;2023-12-29T08:01:59;70.13;;;44.23;;
35891;SDS011;21993;42.672;23.296;2023-12-29T08:04:24;84.90;;;46.13;;
35891;SDS011;21993;42.672;23.296;2023-12-29T08:06:50;80.67;;;44.63;;
35891;SDS011;21993;42.672;23.296;2023-12-29T08:09:15;87.53;;;45.40;;
35891;SDS011;21993;42.672;23.296;2023-12-29T08:11:41;78.63;;;45.60;;
35891;SDS011;21993;42.672;23.296;2023-12-29T08:14:08;78.17;;;45.40;;
35891;SDS011;21993;42.672;23.296;2023-12-29T08:16:42;83.40;;;46.13;;
35891;SDS011;21993;42.672;23.296;2023-12-29T08:19:08;76.37;;;44.73;;
35891;SDS011;21993;42.672;23.296;2023-12-29T08:21:35;81.77;;;45.17;;
35891;SDS011;21993;42.672;23.296;2023-12-29T08:24:01;78.40;;;44.57;;
35891;SDS011;21993;42.672;23.296;2023-12-29T08:26:26;75.27;;;43.87;;
35891;SDS011;21993;42.672;23.296;2023-12-29T08:28:52;79.30;;;43.63;;
35891;SDS011;21993;42.672;23.296;2023-12-29T08:31:18;78.67;;;44.60;;
35891;SDS011;21993;42.672;23.296;2023-12-29T08:33:44;75.13;;;42.50;;
35891;SDS011;21993;42.672;23.296;2023-12-29T08:36:11;73.83;;;44.93;;
35891;SDS011;21993;42.672;23.296;2023-12-29T08:38:37;85.77;;;49.77;;
35891;SDS011;21993;42.672;23.296;2023-12-29T08:41:03;90.70;;;50.20;;
35891;SDS011;21993;42.672;23.296;2023-12-29T08:43:29;85.23;;;47.17;;
35891;SDS011;21993;42.672;23.296;2023-12-29T08:45:55;90.03;;;47.80;;
35891;SDS011;21993;42.672;23.296;2023-12-29T08:48:21;97.70;;;48.20;;
35891;SDS011;21993;42.672;23.296;2023-12-29T08:50:46;90.73;;;49.40;;
35891;SDS011;21993;42.672;23.296;2023-12-29T08:53:12;82.10;;;48.63;;
35891;SDS011;21993;42.672;23.296;2023-12-29T08:55:37;81.27;;;46.13;;
35891;SDS011;21993;42.672;23.296;2023-12-29T08:58:03;90.07;;;48.20;;
35891;SDS011;21993;42.672;23.296;2023-12-29T09:00:28;78.33;;;46.27;;
35891;SDS011;21993;42.672;23.296;2023-12-29T09:02:55;88.57;;;47.33;;
35891;SDS011;21993;42.672;23.296;2023-12-29T09:05:21;97.10;;;47.17;;
35891;SDS011;21993;42.672;23.296;2023-12-29T09:07:47;71.80;;;44.50;;
35891;SDS011;21993;42.672;23.296;2023-12-29T09:10:13;72.50;;;42.20;;
35891;SDS011;21993;42.672;23.296;2023-12-29T09:12:39;72.37;;;40.77;;
35891;SDS011;21993;42.672;23.296;2023-12-29T09:15:05;69.27;;;41.43;;
35891;SDS011;21993;42.672;23.296;2023-12-29T09:17:32;72.67;;;42.03;;
35891;SDS011;21993;42.672;23.296;2023-12-29T09:19:57;76.20;;;43.50;;
35891;SDS011;21993;42.672;23.296;2023-12-29T09:22:23;69.70;;;40.80;;
35891;SDS011;21993;42.672;23.296;2023-12-29T09:24:48;68.27;;;38.73;;
35891;SDS011;21993;42.672;23.296;2023-12-29T09:27:14;65.73;;;38.30;;
35891;SDS011;21993;42.672;23.296;2023-12-29T09:29:39;59.83;;;37.40;;
35891;SDS011;21993;42.672;23.296;2023-12-29T09:32:05;69.37;;;40.70;;
35891;SDS011;21993;42.672;23.296;2023-12-29T09:34:31;67.93;;;40.87;;
35891;SDS011;21993;42.672;23.296;2023-12-29T09:36:56;60.00;;;35.77;;
35891;SDS011;21993;42.672;23.296;2023-12-29T09:39:22;53.47;;;33.23;;
35891;SDS011;21993;42.672;23.296;2023-12-29T09:41:48;53.10;;;34.20;;
35891;SDS011;21993;42.672;23.296;2023-12-29T09:44:16;57.87;;;35.30;;
35891;SDS011;21993;42.672;23.296;2023-12-29T09:46:45;57.17;;;37.07;;
35891;SDS011;21993;42.672;23.296;2023-12-29T09:49:16;62.23;;;36.20;;
35891;SDS011;21993;42.672;23.296;2023-12-29T09:51:43;51.87;;;34.20;;
35891;SDS011;21993;42.672;23.296;2023-12-29T09:54:10;62.20;;;36.87;;
35891;SDS011;21993;42.672;23.296;2023-12-29T09:56:36;56.00;;;33.90;;
35891;SDS011;21993;42.672;23.296;2023-12-29T09:59:03;58.37;;;35.60;;
35891;SDS011;21993;42.672;23.296;2023-12-29T10:01:29;62.73;;;36.23;;
35891;SDS011;21993;42.672;23.296;2023-12-29T10:03:56;59.63;;;36.37;;
35891;SDS011;21993;42.672;23.296;2023-12-29T10:06:25;58.00;;;35.43;;
35891;SDS011;21993;42.672;23.296;2023-12-29T10:08:51;62.50;;;35.87;;
35891;SDS011;21993;42.672;23.296;2023-12-29T10:11:18;53.93;;;34.27;;
35891;SDS011;21993;42.672;23.296;2023-12-29T10:13:50;55.67;;;33.23;;
35891;SDS011;21993;42.672;23.296;2023-12-29T10:19:35;52.10;;;33.27;;
35891;SDS011;21993;42.672;23.296;2023-12-29T10:22:03;53.47;;;34.03;;
35891;SDS011;21993;42.672;23.296;2023-12-29T10:24:36;54.97;;;35.30;;
35891;SDS011;21993;42.672;23.296;2023-12-29T10:27:02;52.73;;;34.50;;
35891;SDS011;21993;42.672;23.296;2023-12-29T10:29:28;51.03;;;34.43;;
35891;SDS011;21993;42.672;23.296;2023-12-29T10:31:54;62.97;;;35.93;;
35891;SDS011;21993;42.672;23.296;2023-12-29T10:34:22;56.10;;;34.47;;
35891;SDS011;21993;42.672;23.296;2023-12-29T10:36:56;49.97;;;33.43;;
35891;SDS011;21993;42.672;23.296;2023-12-29T10:39:23;52.47;;;33.50;;
35891;SDS011;21993;42.672;23.296;2023-12-29T10:42:02;53.33;;;33.03;;
35891;SDS011;21993;42.672;23.296;2023-12-29T10:44:29;48.53;;;32.70;;
35891;SDS011;21993;42.672;23.296;2023-12-29T10:46:55;52.23;;;35.53;;
35891;SDS011;21993;42.672;23.296;2023-12-29T10:49:20;50.67;;;36.60;;
35891;SDS011;21993;42.672;23.296;2023-12-29T10:51:46;56.33;;;36.33;;
35891;SDS011;21993;42.672;23.296;2023-12-29T10:54:19;53.40;;;35.10;;
35891;SDS011;21993;42.672;23.296;2023-12-29T10:57:10;53.27;;;35.67;;
35891;SDS011;21993;42.672;23.296;2023-12-29T10:59:37;55.00;;;36.53;;
35891;SDS011;21993;42.672;23.296;2023-12-29T11:02:03;52.90;;;37.10;;
35891;SDS011;21993;42.672;23.296;2023-12-29T11:04:29;55.70;;;36.40;;
35891;SDS011;21993;42.672;23.296;2023-12-29T11:06:55;54.33;;;36.27;;
35891;SDS011;21993;42.672;23.296;2023-12-29T11:09:30;58.30;;;35.53;;
35891;SDS011;21993;42.672;23.296;2023-12-29T11:12:02;63.57;;;41.20;;
35891;SDS011;21993;42.672;23.296;2023-12-29T11:14:32;66.60;;;43.17;;
35891;SDS011;21993;42.672;23.296;2023-12-29T11:16:58;55.57;;;39.17;;
35891;SDS011;21993;42.672;23.296;2023-12-29T11:19:25;65.80;;;40.77;;
35891;SDS011;21993;42.672;23.296;2023-12-29T11:21:52;62.77;;;41.03;;
35891;SDS011;21993;42.672;23.296;2023-12-29T11:24:19;64.57;;;42.33;;
35891;SDS011;21993;42.672;23.296;2023-12-29T11:26:44;58.00;;;40.00;;
35891;SDS011;21993;42.672;23.296;2023-12-29T11:29:13;51.80;;;36.50;;
35891;SDS011;21993;42.672;23.296;2023-12-29T11:31:40;56.37;;;37.17;;
35891;SDS011;21993;42.672;23.296;2023-12-29T11:34:09;62.17;;;41.13;;
35891;SDS011;21993;42.672;23.296;2023-12-29T11:36:42;62.20;;;42.53;;
35891;SDS011;21993;42.672;23.296;2023-12-29T11:39:14;67.77;;;43.63;;
35891;SDS011;21993;42.672;23.296;2023-12-29T11:41:49;65.00;;;44.00;;
35891;SDS011;21993;42.672;23.296;2023-12-29T11:44:26;60.20;;;40.60;;
35891;SDS011;21993;42.672;23.296;2023-12-29T11:46:56;57.60;;;42.07;;
35891;SDS011;21993;42.672;23.296;2023-12-29T11:49:25;60.00;;;41.27;;
35891;SDS011;21993;42.672;23.296;2023-12-29T11:51:50;62.53;;;40.90;;
35891;SDS011;21993;42.672;23.296;2023-12-29T11:54:23;57.27;;;39.93;;
35891;SDS011;21993;42.672;23.296;2023-12-29T11:56:50;60.83;;;40.70;;
35891;SDS011;21993;42.672;23.296;2023-12-29T11:59:17;56.43;;;40.40;;
35891;SDS011;21993;42.672;23.296;2023-12-29T12:01:49;59.63;;;41.03;;
35891;SDS011;21993;42.672;23.296;2023-12-29T12:07:08;60.30;;;39.70;;
35891;SDS011;21993;42.672;23.296;2023-12-29T12:09:38;60.77;;;42.00;;
35891;SDS011;21993;42.672;23.296;2023-12-29T12:12:04;58.90;;;40.50;;
35891;SDS011;21993;42.672;23.296;2023-12-29T12:14:48;60.00;;;41.57;;
35891;SDS011;21993;42.672;23.296;2023-12-29T12:20:15;65.13;;;43.70;;
35891;SDS011;21993;42.672;23.296;2023-12-29T12:22:41;69.53;;;42.27;;
35891;SDS011;21993;42.672;23.296;2023-12-29T12:25:11;62.57;;;40.73;;
35891;SDS011;21993;42.672;23.296;2023-12-29T12:27:37;53.07;;;35.70;;
35891;SDS011;21993;42.672;23.296;2023-12-29T12:30:03;61.80;;;40.17;;
35891;SDS011;21993;42.672;23.296;2023-12-29T12:32:29;52.27;;;37.60;;
35891;SDS011;21993;42.672;23.296;2023-12-29T12:34:56;56.50;;;38.80;;
35891;SDS011;21993;42.672;23.296;2023-12-29T12:37:28;64.57;;;38.23;;
35891;SDS011;21993;42.672;23.296;2023-12-29T12:39:54;50.70;;;34.60;;
35891;SDS011;21993;42.672;23.296;2023-12-29T12:42:21;41.00;;;29.23;;
35891;SDS011;21993;42.672;23.296;2023-12-29T12:44:54;46.70;;;28.87;;
35891;SDS011;21993;42.672;23.296;2023-12-29T12:47:37;37.40;;;27.47;;
35891;SDS011;21993;42.672;23.296;2023-12-29T12:50:10;45.90;;;27.07;;
35891;SDS011;21993;42.672;23.296;2023-12-29T12:52:37;36.53;;;24.47;;
35891;SDS011;21993;42.672;23.296;2023-12-29T12:55:04;32.20;;;22.03;;
35891;SDS011;21993;42.672;23.296;2023-12-29T12:57:31;36.80;;;23.90;;
35891;SDS011;21993;42.672;23.296;2023-12-29T12:59:58;34.40;;;21.57;;
35891;SDS011;21993;42.672;23.296;2023-12-29T13:02:25;27.87;;;18.73;;
35891;SDS011;21993;42.672;23.296;2023-12-29T13:04:52;29.47;;;19.23;;
35891;SDS011;21993;42.672;23.296;2023-12-29T13:07:18;29.43;;;19.83;;
35891;SDS011;21993;42.672;23.296;2023-12-29T13:09:45;29.40;;;17.63;;
35891;SDS011;21993;42.672;23.296;2023-12-29T13:12:11;27.53;;;18.00;;
35891;SDS011;21993;42.672;23.296;2023-12-29T13:14:37;32.17;;;17.70;;
35891;SDS011;21993;42.672;23.296;2023-12-29T13:17:07;23.67;;;16.13;;
35891;SDS011;21993;42.672;23.296;2023-12-29T13:19:34;25.97;;;13.10;;
35891;SDS011;21993;42.672;23.296;2023-12-29T13:22:00;16.97;;;10.90;;
35891;SDS011;21993;42.672;23.296;2023-12-29T13:24:30;16.93;;;12.77;;
35891;SDS011;21993;42.672;23.296;2023-12-29T13:27:06;19.27;;;12.80;;
35891;SDS011;21993;42.672;23.296;2023-12-29T13:29:33;16.73;;;11.80;;
35891;SDS011;21993;42.672;23.296;2023-12-29T13:32:03;15.27;;;10.03;;
35891;SDS011;21993;42.672;23.296;2023-12-29T13:40:17;15.97;;;10.53;;
35891;SDS011;21993;42.672;23.296;2023-12-29T13:42:59;17.27;;;9.13;;
35891;SDS011;21993;42.672;23.296;2023-12-29T13:45:28;19.13;;;8.93;;
35891;SDS011;21993;42.672;23.296;2023-12-29T13:47:55;17.80;;;8.53;;
35891;SDS011;21993;42.672;23.296;2023-12-29T13:50:21;14.70;;;9.40;;
35891;SDS011;21993;42.672;23.296;2023-12-29T13:52:47;15.70;;;8.63;;
35891;SDS011;21993;42.672;23.296;2023-12-29T13:55:24;15.67;;;9.63;;
35891;SDS011;21993;42.672;23.296;2023-12-29T13:57:50;16.20;;;9.87;;
35891;SDS011;21993;42.672;23.296;2023-12-29T14:00:19;21.53;;;13.40;;
35891;SDS011;21993;42.672;23.296;2023-12-29T14:08:05;20.10;;;9.40;;
35891;SDS011;21993;42.672;23.296;2023-12-29T14:10:35;17.63;;;9.00;;
35891;SDS011;21993;42.672;23.296;2023-12-29T14:15:35;16.40;;;8.87;;
35891;SDS011;21993;42.672;23.296;2023-12-29T14:18:50;20.83;;;9.93;;
35891;SDS011;21993;42.672;23.296;2023-12-29T14:20:54;14.63;;;9.53;;
35891;SDS011;21993;42.672;23.296;2023-12-29T14:23:20;20.60;;;10.53;;
35891;SDS011;21993;42.672;23.296;2023-12-29T14:25:45;21.20;;;10.47;;
35891;SDS011;21993;42.672;23.296;2023-12-29T14:28:16;22.93;;;10.90;;
35891;SDS011;21993;42.672;23.296;2023-12-29T14:30:43;22.33;;;11.47;;
35891;SDS011;21993;42.672;23.296;2023-12-29T14:33:09;21.30;;;10.20;;